सभी
Biggendon Airport (Biggendon Queensland) YBIN मौसम
There is no TAF data available at YBIN or any nearby airports.
There is no METAR data available at YBIN. Showing METAR data for YGAY (27 mi W).
Recent GAH METAR history (no data for YBIN)
| Date | Time (AEST) | Flight Rules | Wind Dir. | Speed | Type | Height AGL (ft) | Visibility | Temp (°C) | Temp (°F) | Dew Point (°C) | Dew Point (°F) | Rel. Humid. | Pressure | Density Altitude | Remarks |
|---|---|---|---|---|---|---|---|---|---|---|---|---|---|---|---|
| 04-मई | 15:00 | n/a | 20° | 3 kt | Missing | 29° | 84° | 17° | 62° | 48% | 1014 mb | 2,026 ft | |||
| 04-मई | 14:00 | n/a | 70° | 2 kt | Missing | 28° | 82° | 17° | 62° | 51% | 1015 mb | 1,876 ft | |||
| 04-मई | 13:00 | n/a | 170° | 6 kt | Missing | 28° | 82° | 18° | 64° | 55% | 1016 mb | 1,847 ft | |||
| 04-मई | 12:00 | n/a | 170° | 4 kt | Missing | 26° | 78° | 18° | 64° | 61% | 1017 mb | 1,577 ft | |||
| 04-मई | 11:00 | n/a | 230° | 3 kt | Missing | 24° | 75° | 18° | 64° | 69% | 1018 mb | 1,307 ft | |||
| 04-मई | 10:00 | n/a | 260° | 5 kt | Missing | 23° | 73° | 17° | 62° | 69% | 1018 mb | 1,187 ft | |||
| 04-मई | 09:00 | n/a | 260° | 6 kt | Missing | 20° | 68° | 17° | 62° | 83% | 1018 mb | 827 ft | |||
| 04-मई | 08:00 | n/a | 250° | 5 kt | Missing | 16° | 60° | 15° | 59° | 94% | 1018 mb | 347 ft | |||
| 04-मई | 07:00 | n/a | 190° | 2 kt | Missing | 13° | 55° | 12° | 53° | 94% | 1018 mb | -13 ft | |||
| 04-मई | 06:00 | n/a | 230° | 2 kt | Missing | 11° | 51° | 10° | 50° | 94% | 1017 mb | -223 ft | |||
| 04-मई | 05:00 | n/a | Calm | Missing | 11° | 51° | 11° | 51° | 100% | 1017 mb | -223 ft | ||||
| 04-मई | 04:00 | n/a | Calm | Missing | 11° | 51° | 11° | 51° | 100% | 1017 mb | -223 ft | ||||
| 04-मई | 03:00 | n/a | 270° | 1 kt | Missing | 12° | 53° | 12° | 53° | 100% | 1017 mb | -103 ft | |||
| 04-मई | 02:00 | n/a | Calm | Missing | 13° | 55° | 12° | 53° | 94% | 1018 mb | -13 ft | ||||
| 04-मई | 01:00 | n/a | Calm | Missing | 13° | 55° | 12° | 53° | 94% | 1018 mb | -13 ft | ||||
| 04-मई | 00:00 | n/a | Calm | Missing | 14° | 57° | 14° | 57° | 100% | 1019 mb | 78 ft | ||||
| 03-मई | 23:00 | n/a | 270° | 1 kt | Missing | 14° | 57° | 13° | 55° | 94% | 1019 mb | 78 ft | |||
| 03-मई | 22:00 | n/a | 270° | 1 kt | Missing | 16° | 60° | 14° | 57° | 88% | 1019 mb | 318 ft | |||
| 03-मई | 21:00 | n/a | 110° | 1 kt | Missing | 17° | 62° | 14° | 57° | 82% | 1019 mb | 438 ft | |||
| 03-मई | 20:00 | n/a | 100° | 2 kt | Missing | 19° | 66° | 14° | 57° | 73% | 1019 mb | 678 ft | |||
| 03-मई | 19:00 | n/a | 80° | 3 kt | Missing | 20° | 68° | 14° | 57° | 68% | 1018 mb | 827 ft | |||
| 03-मई | 18:00 | n/a | 80° | 5 kt | Missing | 22° | 71° | 14° | 57° | 60% | 1017 mb | 1,097 ft | |||
| 03-मई | 17:00 | n/a | 90° | 4 kt | Missing | 26° | 78° | 14° | 57° | 48% | 1017 mb | 1,577 ft | |||
| 03-मई | 16:00 | n/a | 110° | 7 kt | Missing | 27° | 80° | 14° | 57° | 45% | 1017 mb | 1,697 ft |
लॉगिन
| Your browser is unsupported. अपना ब्राऊजर अपग्रेड करें |
